createdAt,value
2022-09-27T00:00:50.188Z,10.50
2022-09-27T00:03:17.951Z,10.50
2022-09-27T00:05:47.119Z,10.40
2022-09-27T00:08:14.999Z,10.30
2022-09-27T00:10:42.799Z,10.40
2022-09-27T00:13:10.619Z,10.40
2022-09-27T00:15:39.125Z,10.30
2022-09-27T00:18:06.997Z,11.20
2022-09-27T00:20:35.949Z,10.80
2022-09-27T00:23:05.081Z,10.40
2022-09-27T00:25:32.892Z,10.60
2022-09-27T00:28:00.875Z,10.60
2022-09-27T00:30:29.252Z,10.40
2022-09-27T00:32:57.083Z,10.20
2022-09-27T00:35:24.849Z,10.40
2022-09-27T00:37:52.655Z,10.10
2022-09-27T00:40:24.223Z,10.00
2022-09-27T00:42:52.208Z,10.20
2022-09-27T00:45:19.983Z,10.20
2022-09-27T00:47:51.097Z,10.20
2022-09-27T00:50:26.025Z,10.20
2022-09-27T00:52:59.323Z,10.10
2022-09-27T00:55:29.756Z,10.20
2022-09-27T00:57:57.640Z,10.00
2022-09-27T01:00:25.478Z,10.00
2022-09-27T01:02:54.889Z,10.00
2022-09-27T01:05:24.328Z,10.10
2022-09-27T01:07:52.253Z,10.20
2022-09-27T01:10:20.280Z,10.20
2022-09-27T01:12:57.937Z,10.10
2022-09-27T01:15:29.387Z,10.40
2022-09-27T01:18:05.924Z,10.10
2022-09-27T01:21:03.466Z,10.10
2022-09-27T01:23:50.508Z,10.20
2022-09-27T01:26:26.056Z,10.30
2022-09-27T01:28:59.498Z,10.30
2022-09-27T01:31:31.660Z,10.20
2022-09-27T01:34:03.653Z,10.20
2022-09-27T01:36:35.968Z,10.30
2022-09-27T01:39:10.246Z,10.20
2022-09-27T01:41:39.276Z,10.10
2022-09-27T01:44:09.722Z,10.00
2022-09-27T01:46:40.694Z,10.10
2022-09-27T01:49:10.877Z,10.00
2022-09-27T01:51:41.016Z,10.00
2022-09-27T01:54:09.156Z,9.90
2022-09-27T01:56:38.964Z,10.00
2022-09-27T01:59:08.657Z,9.90
2022-09-27T02:01:37.030Z,9.90
2022-09-27T02:04:06.277Z,9.90
2022-09-27T02:06:36.008Z,9.90
2022-09-27T02:09:05.070Z,10.00
2022-09-27T02:11:32.845Z,9.90
2022-09-27T02:14:01.565Z,10.00
2022-09-27T02:16:32.135Z,10.00
2022-09-27T02:19:04.607Z,10.00
2022-09-27T02:21:39.493Z,10.10
2022-09-27T02:24:07.383Z,10.20
2022-09-27T02:26:38.529Z,10.10
2022-09-27T02:29:08.432Z,10.20
2022-09-27T02:31:36.214Z,10.10
2022-09-27T02:34:04.936Z,10.10
2022-09-27T02:36:34.066Z,10.30
2022-09-27T02:39:02.155Z,10.40
2022-09-27T02:41:30.031Z,10.20
2022-09-27T02:43:59.285Z,10.10
2022-09-27T02:50:33.321Z,10.20
2022-09-27T02:53:08.844Z,10.40
2022-09-27T02:55:42.735Z,10.10
2022-09-27T02:58:15.431Z,10.00
2022-09-27T03:00:54.131Z,9.80
2022-09-27T03:03:22.705Z,9.60
2022-09-27T03:05:52.008Z,9.70
2022-09-27T03:08:21.208Z,9.70
2022-09-27T03:10:49.357Z,9.70
2022-09-27T03:13:17.154Z,9.80
2022-09-27T03:15:44.942Z,9.60
2022-09-27T03:18:12.706Z,9.60
2022-09-27T03:20:40.502Z,9.60
2022-09-27T03:23:08.281Z,9.60
2022-09-27T03:25:37.422Z,9.60
2022-09-27T03:28:05.183Z,9.80
2022-09-27T03:30:33.019Z,9.80
2022-09-27T03:33:00.867Z,9.90
2022-09-27T03:35:28.643Z,9.80
2022-09-27T03:37:56.584Z,9.80
2022-09-27T03:40:24.409Z,9.90
2022-09-27T03:42:53.693Z,9.80
2022-09-27T03:45:21.458Z,9.50
2022-09-27T03:47:49.244Z,9.70
2022-09-27T03:50:17.290Z,9.90
2022-09-27T03:52:45.593Z,9.80
2022-09-27T03:55:13.504Z,9.90
2022-09-27T03:57:44.717Z,9.90
2022-09-27T04:00:15.050Z,9.90
2022-09-27T04:02:42.973Z,9.70
2022-09-27T04:05:10.858Z,9.70
2022-09-27T04:07:39.349Z,9.90
2022-09-27T04:10:07.705Z,9.90
2022-09-27T04:12:35.649Z,9.90
2022-09-27T04:15:03.452Z,9.70
2022-09-27T04:17:32.708Z,9.60
2022-09-27T04:20:00.511Z,9.50
2022-09-27T04:22:28.318Z,9.50
2022-09-27T04:24:56.108Z,9.50
2022-09-27T04:27:24.080Z,9.60
2022-09-27T04:29:52.237Z,9.70
2022-09-27T04:32:20.139Z,9.60
2022-09-27T04:35:06.636Z,9.80
2022-09-27T04:37:34.450Z,9.70
2022-09-27T04:40:02.497Z,9.70
2022-09-27T04:42:30.321Z,9.70
2022-09-27T04:44:58.102Z,9.80
2022-09-27T04:47:25.928Z,9.90
2022-09-27T04:49:55.142Z,9.90
2022-09-27T04:52:22.978Z,9.80
2022-09-27T04:54:51.605Z,9.70
2022-09-27T04:57:19.396Z,9.70
2022-09-27T04:59:47.229Z,9.70
2022-09-27T05:02:15.047Z,9.60
2022-09-27T05:04:42.881Z,9.60
2022-09-27T05:07:12.068Z,9.50
2022-09-27T05:09:39.831Z,9.50
2022-09-27T05:12:08.850Z,9.40
2022-09-27T05:14:37.196Z,9.50
2022-09-27T05:17:05.123Z,9.40
2022-09-27T05:19:32.953Z,9.50
2022-09-27T05:22:00.851Z,9.60
2022-09-27T05:24:32.037Z,9.50
2022-09-27T05:26:59.858Z,9.40
2022-09-27T05:29:27.683Z,9.40
2022-09-27T05:31:55.440Z,9.40
2022-09-27T05:34:23.195Z,9.40
2022-09-27T05:36:51.012Z,9.50
2022-09-27T05:39:18.930Z,9.50
2022-09-27T05:44:21.687Z,9.30
2022-09-27T05:46:49.478Z,9.30
2022-09-27T05:49:17.234Z,9.30
2022-09-27T05:51:45.143Z,9.40
2022-09-27T05:54:12.962Z,9.50
2022-09-27T05:56:40.883Z,9.40
2022-09-27T05:59:10.222Z,9.40
2022-09-27T06:01:38.197Z,9.50
2022-09-27T06:04:06.390Z,9.50
2022-09-27T06:06:36.750Z,9.50
2022-09-27T06:09:04.629Z,9.50
2022-09-27T06:11:32.395Z,9.70
2022-09-27T06:14:00.184Z,9.60
2022-09-27T06:16:29.396Z,9.70
2022-09-27T06:18:57.897Z,9.70
2022-09-27T06:21:28.696Z,9.60
2022-09-27T06:23:56.499Z,9.50
2022-09-27T06:26:24.376Z,9.50
2022-09-27T06:28:52.201Z,9.60
2022-09-27T06:31:19.989Z,9.60
2022-09-27T06:33:49.108Z,9.50
2022-09-27T06:38:49.762Z,9.40
2022-09-27T06:41:17.529Z,9.50
2022-09-27T06:43:45.275Z,9.50
2022-09-27T06:46:13.088Z,9.50
2022-09-27T06:48:40.867Z,9.60
2022-09-27T06:51:10.020Z,9.60
2022-09-27T06:53:37.789Z,9.50
2022-09-27T06:56:05.735Z,9.40
2022-09-27T06:58:50.840Z,9.50
2022-09-27T07:01:18.933Z,9.50
2022-09-27T07:03:53.327Z,9.60
2022-09-27T07:06:23.855Z,9.50
2022-09-27T07:08:53.010Z,9.50
2022-09-27T07:11:22.064Z,9.60
2022-09-27T07:13:50.702Z,9.50
2022-09-27T07:16:19.148Z,9.60
2022-09-27T07:18:48.288Z,9.60
2022-09-27T07:21:16.305Z,9.70
2022-09-27T07:23:45.411Z,9.60
2022-09-27T07:26:13.205Z,9.60
2022-09-27T07:28:41.511Z,9.70
2022-09-27T07:31:09.744Z,9.70
2022-09-27T07:33:42.381Z,9.90
2022-09-27T07:36:11.779Z,10.00
2022-09-27T07:38:39.619Z,9.90
2022-09-27T07:41:09.409Z,9.80
2022-09-27T07:43:37.212Z,9.80
2022-09-27T07:46:05.034Z,9.80
2022-09-27T07:48:32.942Z,9.90
2022-09-27T07:51:01.003Z,10.10
2022-09-27T07:53:28.767Z,10.10
2022-09-27T07:55:57.222Z,10.10
2022-09-27T07:58:26.575Z,10.50
2022-09-27T08:00:54.859Z,10.30
2022-09-27T08:03:22.859Z,10.40
2022-09-27T08:05:50.658Z,10.60
2022-09-27T08:08:18.559Z,10.70
2022-09-27T08:10:47.085Z,10.70
2022-09-27T08:13:15.188Z,10.70
2022-09-27T08:15:44.279Z,10.60
2022-09-27T08:18:12.092Z,10.40
2022-09-27T08:20:40.107Z,10.40
2022-09-27T08:23:08.030Z,10.40
2022-09-27T08:25:36.367Z,10.60
2022-09-27T08:28:04.968Z,10.50
2022-09-27T08:30:33.035Z,10.50
2022-09-27T08:33:03.472Z,10.50
2022-09-27T08:35:33.750Z,10.50
2022-09-27T08:38:02.122Z,10.70
2022-09-27T08:40:36.496Z,11.50
2022-09-27T08:43:07.840Z,11.60
2022-09-27T08:45:38.495Z,11.30
2022-09-27T08:48:07.703Z,11.10
2022-09-27T08:50:40.075Z,11.10
2022-09-27T08:53:14.316Z,11.00
2022-09-27T08:55:43.380Z,11.30
2022-09-27T08:58:14.594Z,11.40
2022-09-27T09:00:43.441Z,11.30
2022-09-27T09:03:18.321Z,11.10
2022-09-27T09:05:48.228Z,11.00
2022-09-27T09:08:24.492Z,11.20
2022-09-27T09:11:11.657Z,11.40
2022-09-27T09:13:52.168Z,11.20
2022-09-27T09:16:27.627Z,11.00
2022-09-27T09:19:09.013Z,11.80
2022-09-27T09:21:40.293Z,12.10
2022-09-27T09:24:19.349Z,12.30
2022-09-27T09:26:49.891Z,12.50
2022-09-27T09:29:27.415Z,12.00
2022-09-27T09:31:59.192Z,12.40
2022-09-27T09:34:30.318Z,12.80
2022-09-27T09:36:59.416Z,12.60
2022-09-27T09:39:28.363Z,12.40
2022-09-27T09:42:07.878Z,12.20
2022-09-27T09:44:41.193Z,11.90
2022-09-27T09:47:14.642Z,11.30
2022-09-27T09:49:45.166Z,11.00
2022-09-27T09:52:14.185Z,10.90
2022-09-27T09:54:44.018Z,10.90
2022-09-27T09:57:13.803Z,10.90
2022-09-27T09:59:43.885Z,10.90
2022-09-27T10:02:20.577Z,10.70
2022-09-27T10:04:49.733Z,10.70
2022-09-27T10:07:18.047Z,10.80
2022-09-27T10:09:45.875Z,11.40
2022-09-27T10:12:13.736Z,11.30
2022-09-27T10:14:41.606Z,11.60
2022-09-27T10:17:14.565Z,11.50
2022-09-27T10:19:42.881Z,11.30
2022-09-27T10:22:18.052Z,10.70
2022-09-27T10:24:59.315Z,10.70
2022-09-27T10:27:27.304Z,10.70
2022-09-27T10:29:58.864Z,10.70
2022-09-27T10:32:30.825Z,11.20
2022-09-27T10:34:59.117Z,12.00
2022-09-27T10:37:28.296Z,11.70
2022-09-27T10:39:57.780Z,11.10
2022-09-27T10:42:33.846Z,11.40
2022-09-27T10:45:23.914Z,11.60
2022-09-27T10:47:54.621Z,11.30
2022-09-27T10:53:18.892Z,11.90
2022-09-27T10:55:50.044Z,12.00
2022-09-27T10:58:19.224Z,11.10
2022-09-27T11:00:48.455Z,11.30
2022-09-27T11:03:16.952Z,11.80
2022-09-27T11:05:44.737Z,12.10
2022-09-27T11:08:26.535Z,12.40
2022-09-27T11:11:06.552Z,13.60
2022-09-27T11:13:35.549Z,12.70
2022-09-27T11:16:14.068Z,12.40
2022-09-27T11:18:44.949Z,12.80
2022-09-27T11:21:17.921Z,13.20
2022-09-27T11:23:58.167Z,13.10
2022-09-27T11:26:34.834Z,13.10
2022-09-27T11:29:07.814Z,12.90
2022-09-27T11:31:42.893Z,13.40
2022-09-27T11:34:38.353Z,13.70
2022-09-27T11:37:13.777Z,14.10
2022-09-27T11:39:52.644Z,14.40
2022-09-27T11:42:33.205Z,14.30
2022-09-27T11:45:41.264Z,14.30
2022-09-27T11:48:04.976Z,14.50
2022-09-27T11:51:08.731Z,15.00
2022-09-27T11:53:52.134Z,14.90
2022-09-27T11:56:27.469Z,15.50
2022-09-27T11:59:03.711Z,15.40
2022-09-27T12:01:34.711Z,15.00
2022-09-27T12:04:40.128Z,15.60
2022-09-27T12:07:10.403Z,15.60
2022-09-27T12:09:40.324Z,14.80
2022-09-27T12:12:12.404Z,14.80
2022-09-27T12:14:41.310Z,15.00
2022-09-27T12:17:12.824Z,14.30
2022-09-27T12:19:42.904Z,14.10
2022-09-27T12:22:14.204Z,13.70
2022-09-27T12:24:42.001Z,13.30
2022-09-27T12:27:15.659Z,13.20
2022-09-27T12:29:45.153Z,13.10
2022-09-27T12:32:15.868Z,13.10
2022-09-27T12:34:46.794Z,13.00
2022-09-27T12:37:17.095Z,13.10
2022-09-27T12:39:49.289Z,13.00
2022-09-27T12:42:21.242Z,12.60
2022-09-27T12:44:50.820Z,12.30
2022-09-27T12:47:27.964Z,12.30
2022-09-27T12:50:01.639Z,12.20
2022-09-27T12:52:33.551Z,12.10
2022-09-27T12:55:22.600Z,12.10
2022-09-27T12:58:08.622Z,12.10
2022-09-27T13:00:38.309Z,12.00
2022-09-27T13:03:43.368Z,11.70
2022-09-27T13:06:32.154Z,11.70
2022-09-27T13:09:18.508Z,11.60
2022-09-27T13:11:49.418Z,11.50
2022-09-27T13:14:21.501Z,11.50
2022-09-27T13:16:49.404Z,11.50
2022-09-27T13:19:39.429Z,11.30
2022-09-27T13:22:08.420Z,11.40
2022-09-27T13:24:43.937Z,11.30
2022-09-27T13:27:42.548Z,11.20
2022-09-27T13:33:43.409Z,11.20
2022-09-27T13:36:32.359Z,11.30
2022-09-27T13:39:21.154Z,11.10
2022-09-27T13:42:01.293Z,11.20
2022-09-27T13:44:31.224Z,11.20
2022-09-27T13:47:02.659Z,11.20
2022-09-27T13:49:33.754Z,11.10
2022-09-27T13:52:03.158Z,11.00
2022-09-27T13:54:38.899Z,11.10
2022-09-27T13:57:09.637Z,10.90
2022-09-27T13:59:43.041Z,10.50
2022-09-27T14:02:14.816Z,10.50
2022-09-27T14:04:45.188Z,10.50
2022-09-27T14:07:14.782Z,10.50
2022-09-27T14:09:44.271Z,10.30
2022-09-27T14:12:14.088Z,10.20
2022-09-27T14:14:42.698Z,10.30
2022-09-27T14:17:10.572Z,10.20
2022-09-27T14:19:40.269Z,10.30
2022-09-27T14:22:14.168Z,10.50
2022-09-27T14:24:46.084Z,10.50
2022-09-27T14:27:17.522Z,10.60
2022-09-27T14:29:47.389Z,11.00
2022-09-27T14:32:16.431Z,11.10
2022-09-27T14:34:44.224Z,11.40
2022-09-27T14:37:30.194Z,11.70
2022-09-27T14:40:00.214Z,11.80
2022-09-27T14:42:29.018Z,11.90
2022-09-27T14:44:58.304Z,12.40
2022-09-27T14:47:27.807Z,11.90
2022-09-27T14:49:58.951Z,11.70
2022-09-27T14:52:28.919Z,11.60
2022-09-27T14:54:59.195Z,11.60
2022-09-27T14:57:28.285Z,11.60
2022-09-27T14:59:57.628Z,11.50
2022-09-27T15:02:26.323Z,11.70
2022-09-27T15:04:54.339Z,11.50
2022-09-27T15:07:22.525Z,11.30
2022-09-27T15:09:50.933Z,11.30
2022-09-27T15:12:25.320Z,11.10
2022-09-27T15:14:54.556Z,11.20
2022-09-27T15:17:22.636Z,11.10
2022-09-27T15:20:01.113Z,11.00
2022-09-27T15:22:38.136Z,11.30
2022-09-27T15:25:09.052Z,11.50
2022-09-27T15:27:38.686Z,11.80
2022-09-27T15:30:07.613Z,11.90
2022-09-27T15:32:35.443Z,12.00
2022-09-27T15:35:07.710Z,12.00
2022-09-27T15:37:36.308Z,11.90
2022-09-27T15:40:21.987Z,11.90
2022-09-27T15:42:58.234Z,11.70
2022-09-27T15:45:30.059Z,11.60
2022-09-27T15:47:57.896Z,11.60
2022-09-27T15:50:35.892Z,11.60
2022-09-27T15:53:03.965Z,11.50
2022-09-27T15:55:31.764Z,11.50
2022-09-27T15:58:03.252Z,11.50
2022-09-27T16:00:31.153Z,11.40
2022-09-27T16:02:58.981Z,11.40
2022-09-27T16:05:27.274Z,11.40
2022-09-27T16:07:56.152Z,11.40
2022-09-27T16:10:25.514Z,11.40
2022-09-27T16:12:53.372Z,11.40
2022-09-27T16:15:22.658Z,11.50
2022-09-27T16:17:50.459Z,11.30
2022-09-27T16:20:19.608Z,11.30
2022-09-27T16:22:47.436Z,11.30
2022-09-27T16:25:15.287Z,11.30
2022-09-27T16:27:43.600Z,11.20
2022-09-27T16:30:12.633Z,11.20
2022-09-27T16:32:43.085Z,11.20
2022-09-27T16:35:11.236Z,10.90
2022-09-27T16:37:39.116Z,10.60
2022-09-27T16:40:08.438Z,10.20
2022-09-27T16:42:36.324Z,10.10
2022-09-27T16:45:09.783Z,10.10
2022-09-27T16:47:38.958Z,10.20
2022-09-27T16:50:29.277Z,10.20
2022-09-27T16:52:57.545Z,10.10
2022-09-27T16:55:28.169Z,10.00
2022-09-27T16:57:57.191Z,9.90
2022-09-27T17:00:25.230Z,9.80
2022-09-27T17:02:53.380Z,9.80
2022-09-27T17:05:23.081Z,9.80
2022-09-27T17:07:51.640Z,9.70
2022-09-27T17:10:19.577Z,9.60
2022-09-27T17:12:47.519Z,9.60
2022-09-27T17:15:15.606Z,9.60
2022-09-27T17:17:45.126Z,9.50
2022-09-27T17:20:13.075Z,9.50
2022-09-27T17:22:42.310Z,9.50
2022-09-27T17:25:10.672Z,9.50
2022-09-27T17:27:38.551Z,9.50
2022-09-27T17:30:07.823Z,9.60
2022-09-27T17:32:35.718Z,9.50
2022-09-27T17:35:03.852Z,9.50
2022-09-27T17:37:31.684Z,9.50
2022-09-27T17:40:01.073Z,9.40
2022-09-27T17:42:28.951Z,9.30
2022-09-27T17:44:56.808Z,9.30
2022-09-27T17:47:42.229Z,9.20
2022-09-27T17:50:27.570Z,9.20
2022-09-27T17:52:55.948Z,9.30
2022-09-27T17:55:25.813Z,9.30
2022-09-27T17:57:53.666Z,9.40
2022-09-27T18:00:21.768Z,9.30
2022-09-27T18:02:49.674Z,9.40
2022-09-27T18:05:21.276Z,9.40
2022-09-27T18:07:49.274Z,9.40
2022-09-27T18:10:19.909Z,9.40
2022-09-27T18:12:49.129Z,9.30
2022-09-27T18:15:20.295Z,9.10
2022-09-27T18:17:55.800Z,9.10
2022-09-27T18:20:25.865Z,8.90
2022-09-27T18:22:53.988Z,8.90
2022-09-27T18:25:22.003Z,8.90
2022-09-27T18:27:52.184Z,8.90
2022-09-27T18:30:20.070Z,8.90
2022-09-27T18:32:50.488Z,8.90
2022-09-27T18:35:19.741Z,9.00
2022-09-27T18:37:48.080Z,8.80
2022-09-27T18:40:27.916Z,8.80
2022-09-27T18:43:06.077Z,8.70
2022-09-27T18:45:36.442Z,8.60
2022-09-27T18:48:04.341Z,8.50
2022-09-27T18:50:35.460Z,8.50
2022-09-27T18:53:03.291Z,8.70
2022-09-27T18:55:31.797Z,8.70
2022-09-27T18:57:59.615Z,8.50
2022-09-27T19:00:29.364Z,8.50
2022-09-27T19:02:57.236Z,8.40
2022-09-27T19:05:25.161Z,8.50
2022-09-27T19:07:53.207Z,8.40
2022-09-27T19:10:21.352Z,8.40
2022-09-27T19:12:49.155Z,8.50
2022-09-27T19:15:17.140Z,8.60
2022-09-27T19:17:46.299Z,8.40
2022-09-27T19:20:14.128Z,8.40
2022-09-27T19:22:41.948Z,8.60
2022-09-27T19:25:10.846Z,8.40
2022-09-27T19:27:43.114Z,8.50
2022-09-27T19:30:12.451Z,8.30
2022-09-27T19:32:40.464Z,8.30
2022-09-27T19:35:11.462Z,8.40
2022-09-27T19:37:39.320Z,8.50
2022-09-27T19:40:07.829Z,8.30
2022-09-27T19:42:35.692Z,8.30
2022-09-27T19:45:06.797Z,8.40
2022-09-27T19:47:37.130Z,8.20
2022-09-27T19:50:05.329Z,8.30
2022-09-27T19:52:34.666Z,8.50
2022-09-27T19:55:02.551Z,8.50
2022-09-27T19:57:30.434Z,8.50
2022-09-27T19:59:58.304Z,8.20
2022-09-27T20:02:26.426Z,8.30
2022-09-27T20:04:55.108Z,8.40
2022-09-27T20:07:22.975Z,8.40
2022-09-27T20:09:52.916Z,8.20
2022-09-27T20:12:21.332Z,8.40
2022-09-27T20:14:52.216Z,8.40
2022-09-27T20:17:23.216Z,8.50
2022-09-27T20:19:51.075Z,8.40
2022-09-27T20:22:19.057Z,8.60
2022-09-27T20:24:46.887Z,8.50
2022-09-27T20:27:16.060Z,8.60
2022-09-27T20:29:43.892Z,8.40
2022-09-27T20:32:28.456Z,8.40
2022-09-27T20:34:56.549Z,8.50
2022-09-27T20:37:24.407Z,8.70
2022-09-27T20:39:53.818Z,8.60
2022-09-27T20:42:23.210Z,8.60
2022-09-27T20:44:54.405Z,8.40
2022-09-27T20:47:23.172Z,8.50
2022-09-27T20:49:51.072Z,8.60
2022-09-27T20:52:19.573Z,8.60
2022-09-27T20:54:47.428Z,8.50
2022-09-27T20:57:15.449Z,8.70
2022-09-27T20:59:44.614Z,8.60
2022-09-27T21:02:12.671Z,8.60
2022-09-27T21:04:40.934Z,8.70
2022-09-27T21:07:08.960Z,8.60
2022-09-27T21:09:38.634Z,8.60
2022-09-27T21:12:06.587Z,8.60
2022-09-27T21:14:34.413Z,8.70
2022-09-27T21:17:03.604Z,8.70
2022-09-27T21:19:31.474Z,8.80
2022-09-27T21:21:59.312Z,8.70
2022-09-27T21:24:27.159Z,8.80
2022-09-27T21:26:57.003Z,8.50
2022-09-27T21:29:24.905Z,8.50
2022-09-27T21:31:52.762Z,8.60
2022-09-27T21:34:21.995Z,8.40
2022-09-27T21:36:50.136Z,8.40
2022-09-27T21:39:18.071Z,8.60
2022-09-27T21:41:45.968Z,8.50
2022-09-27T21:44:14.046Z,8.60
2022-09-27T21:46:43.487Z,8.60
2022-09-27T21:49:11.874Z,8.60
2022-09-27T21:51:41.562Z,8.70
2022-09-27T21:54:10.659Z,8.70
2022-09-27T21:56:39.846Z,8.70
2022-09-27T21:59:08.384Z,8.60
2022-09-27T22:01:36.308Z,8.50
2022-09-27T22:04:05.740Z,8.50
2022-09-27T22:06:34.473Z,8.50
2022-09-27T22:09:04.454Z,8.60
2022-09-27T22:11:33.149Z,8.70
2022-09-27T22:14:01.086Z,8.60
2022-09-27T22:16:30.198Z,8.60
2022-09-27T22:18:58.248Z,8.60
2022-09-27T22:21:28.641Z,8.60
2022-09-27T22:23:56.675Z,8.40
2022-09-27T22:26:26.848Z,8.50
2022-09-27T22:28:54.759Z,8.50
2022-09-27T22:31:23.324Z,8.40
2022-09-27T22:33:51.844Z,8.60
2022-09-27T22:36:19.739Z,8.70
2022-09-27T22:38:47.694Z,8.60
2022-09-27T22:41:16.166Z,8.40
2022-09-27T22:43:45.419Z,8.50
2022-09-27T22:46:14.147Z,8.40
2022-09-27T22:48:42.237Z,8.40
2022-09-27T22:51:10.323Z,8.50
2022-09-27T22:53:38.401Z,8.50
2022-09-27T22:56:07.914Z,8.40
2022-09-27T22:58:38.645Z,8.30
2022-09-27T23:01:11.493Z,8.80
2022-09-27T23:03:39.770Z,8.70
2022-09-27T23:06:08.304Z,8.80
2022-09-27T23:08:36.337Z,8.70
2022-09-27T23:11:05.450Z,8.70
2022-09-27T23:13:34.389Z,8.80
2022-09-27T23:16:03.233Z,8.50
2022-09-27T23:18:33.370Z,8.50
2022-09-27T23:21:02.685Z,8.40
2022-09-27T23:23:31.789Z,8.60
2022-09-27T23:26:00.601Z,8.50
2022-09-27T23:28:28.595Z,8.40
2022-09-27T23:30:56.536Z,8.60
2022-09-27T23:33:24.767Z,8.50
2022-09-27T23:35:53.943Z,8.50
2022-09-27T23:38:21.834Z,8.40
2022-09-27T23:40:49.747Z,8.40
2022-09-27T23:43:17.651Z,8.50
2022-09-27T23:45:45.532Z,8.60
2022-09-27T23:48:13.418Z,8.60
2022-09-27T23:50:44.138Z,8.70
2022-09-27T23:53:13.357Z,8.60
2022-09-27T23:55:41.224Z,8.50
2022-09-27T23:58:09.066Z,8.50
